»·PEaware :: UAL1980 KSAN-KSJC

UAL1980 :: KSAN-KSJC

FLIGHT INFORMATION

Flight Status: Arrived
Operator:
United Airlines
More flights by this operator :: More flights under this callsign
Pilot: Chris C. (10181)
Aircraft: BOEING 757-200
(B752)
More flights by this aircraft type
Origin: KSAN San Diego Intl-Lindbergh
United States
Destination: KSJC Mineta San Jose Intl
United States
More flights between these airports :: More routes between these airports
Route: PADRZ2 IKAYE TESEA SCTRR TROXX SILCN4
File this flight plan on PilotEdge
Remarks: Happy Thursday!
Altitude:
(Current/Filed)
280ft
Speed:
(Current/Filed)
475kts
Departed: 30-Jan-20 10:35 AM
Arrived: 30-Jan-20 11:40 AM
Distance/Time
Traveled:
363nm/1:04
Distance/Time
To Go:
Arrived

Flight Plot

Page will automatically refresh every two minutes.

Flight plan parsing failed; only flown route is shown


Map Options




Map Legend


Flown Route
Filed Route
Departure Airport
Arrival Airport
Navaid (VOR, NDB)
Fix

Horizontal Profiles

Position Reports

Time Latitude Longitude Heading Altitude Ground
Speed
30-Jan-20 09:27 32.733152 -117.196781 138 24ft 0kts
30-Jan-20 09:28 32.733152 -117.196781 138 24ft 0kts
30-Jan-20 09:29 32.733152 -117.196781 138 24ft 0kts
30-Jan-20 09:30 32.733152 -117.196781 138 24ft 0kts
30-Jan-20 09:31 32.733152 -117.196781 138 24ft 0kts
30-Jan-20 09:32 32.733152 -117.196781 138 24ft 0kts
30-Jan-20 09:33 32.733152 -117.196781 138 24ft 0kts
30-Jan-20 09:34 32.733152 -117.196781 138 24ft 0kts
30-Jan-20 09:34 32.733152 -117.196781 138 24ft 0kts
30-Jan-20 09:36 32.733152 -117.196781 138 24ft 0kts
30-Jan-20 09:36 32.733152 -117.196781 138 24ft 0kts
30-Jan-20 09:38 32.733152 -117.196781 138 24ft 0kts
30-Jan-20 09:38 32.733152 -117.196781 138 24ft 0kts
30-Jan-20 09:40 32.733152 -117.196781 138 24ft 0kts
30-Jan-20 09:40 32.733152 -117.196781 138 24ft 0kts
30-Jan-20 09:41 32.733152 -117.196781 138 24ft 0kts
30-Jan-20 09:42 32.733152 -117.196781 138 24ft 0kts
30-Jan-20 09:43 32.733152 -117.196781 138 24ft 0kts
30-Jan-20 09:44 32.733152 -117.196781 138 24ft 0kts
30-Jan-20 09:45 32.733152 -117.196781 138 24ft 0kts
30-Jan-20 09:46 32.733152 -117.196781 138 24ft 0kts
30-Jan-20 09:47 32.733152 -117.196781 138 24ft 0kts
30-Jan-20 09:48 32.733152 -117.196781 138 24ft 0kts
30-Jan-20 09:49 32.733152 -117.196781 138 24ft 0kts
30-Jan-20 09:50 32.733152 -117.196781 138 24ft 0kts
30-Jan-20 09:51 32.733152 -117.196781 138 24ft 0kts
30-Jan-20 09:52 32.733152 -117.196781 138 24ft 0kts
30-Jan-20 09:53 32.733152 -117.196781 138 24ft 0kts
30-Jan-20 09:54 32.733152 -117.196781 138 24ft 0kts
30-Jan-20 09:55 32.733152 -117.196781 138 24ft 0kts
30-Jan-20 09:56 32.733152 -117.196781 138 24ft 0kts
30-Jan-20 09:57 32.733152 -117.196781 138 24ft 0kts
30-Jan-20 09:58 32.733152 -117.196781 138 24ft 0kts
30-Jan-20 09:59 32.733152 -117.196781 138 24ft 0kts
30-Jan-20 10:00 32.733152 -117.196781 138 24ft 0kts
30-Jan-20 10:01 32.733152 -117.196781 138 24ft 0kts
30-Jan-20 10:02 32.733152 -117.196781 138 24ft 0kts
30-Jan-20 10:03 32.733152 -117.196781 138 24ft 0kts
30-Jan-20 10:04 32.733152 -117.196781 138 24ft 0kts
30-Jan-20 10:05 32.733152 -117.196781 138 24ft 0kts
30-Jan-20 10:06 32.733152 -117.196781 138 24ft 0kts
30-Jan-20 10:07 32.733152 -117.196781 138 24ft 0kts
30-Jan-20 10:08 32.733152 -117.196781 138 24ft 0kts
30-Jan-20 10:09 32.733152 -117.196781 138 24ft 0kts
30-Jan-20 10:10 32.733152 -117.196781 138 24ft 0kts
30-Jan-20 10:11 32.733152 -117.196781 138 24ft 0kts
30-Jan-20 10:12 32.733152 -117.196781 138 24ft 0kts
30-Jan-20 10:13 32.733152 -117.196781 138 24ft 0kts
30-Jan-20 10:14 32.733152 -117.196781 138 24ft 0kts
30-Jan-20 10:15 32.733152 -117.196781 138 24ft 0kts
30-Jan-20 10:16 32.733152 -117.196781 138 24ft 0kts
30-Jan-20 10:17 32.733152 -117.196781 138 24ft 0kts
30-Jan-20 10:18 32.733152 -117.196781 138 24ft 0kts
30-Jan-20 10:19 32.733124 -117.197268 20 24ft 0kts
30-Jan-20 10:20 32.733046 -117.197294 16 24ft 0kts
30-Jan-20 10:21 32.733046 -117.197294 16 24ft 0kts
30-Jan-20 10:22 32.733046 -117.197294 16 24ft 0kts
30-Jan-20 10:23 32.733046 -117.197294 16 24ft 0kts
30-Jan-20 10:24 32.733046 -117.197294 16 24ft 0kts
30-Jan-20 10:25 32.733602 -117.197096 16 24ft 0kts
30-Jan-20 10:26 32.733616 -117.197091 16 24ft 0kts
30-Jan-20 10:27 32.733905 -117.195382 105 24ft 13kts
30-Jan-20 10:28 32.732389 -117.189093 107 25ft 17kts
30-Jan-20 10:29 32.731273 -117.184509 106 25ft 11kts
30-Jan-20 10:30 32.730176 -117.179902 106 26ft 16kts
30-Jan-20 10:31 32.729518 -117.177000 91 26ft 0kts
30-Jan-20 10:32 32.729518 -117.177000 91 26ft 0kts
30-Jan-20 10:33 32.729703 -117.175728 77 27ft 13kts
30-Jan-20 10:34 32.731304 -117.180399 285 26ft 86kts
30-Jan-20 10:35 32.744904 -117.228744 305 1753ft 178kts
30-Jan-20 10:36 32.780619 -117.282447 310 4297ft 247kts
30-Jan-20 10:37 32.822636 -117.351956 307 6951ft 265kts
30-Jan-20 10:38 32.867070 -117.422848 310 9435ft 271kts
30-Jan-20 10:39 32.913872 -117.495690 311 11452ft 291kts
30-Jan-20 10:40 32.966902 -117.578299 311 12468ft 324kts
30-Jan-20 10:41 33.021972 -117.664312 310 14249ft 329kts
30-Jan-20 10:42 33.081880 -117.747751 321 16232ft 333kts
30-Jan-20 10:43 33.143417 -117.810477 321 17864ft 339kts
30-Jan-20 10:44 33.215032 -117.887011 317 19601ft 350kts
30-Jan-20 10:45 33.285450 -117.971036 317 20823ft 372kts
30-Jan-20 10:46 33.359835 -118.059969 317 22294ft 384kts
30-Jan-20 10:47 33.436814 -118.152225 317 23737ft 394kts
30-Jan-20 10:48 33.515262 -118.246489 317 25191ft 401kts
30-Jan-20 10:49 33.594887 -118.342429 317 26465ft 410kts
30-Jan-20 10:50 33.675513 -118.439851 317 27793ft 414kts
30-Jan-20 10:51 33.757329 -118.539000 318 28178ft 416kts
30-Jan-20 10:52 33.840165 -118.639640 317 28178ft 430kts
30-Jan-20 10:53 33.924085 -118.741934 317 28179ft 430kts
30-Jan-20 10:54 34.009031 -118.845781 317 28181ft 430kts
30-Jan-20 10:55 34.092642 -118.948308 317 28182ft 428kts
30-Jan-20 10:56 34.176720 -119.050348 317 28205ft 427kts
30-Jan-20 10:57 34.262063 -119.152071 317 28212ft 428kts
30-Jan-20 10:58 34.346859 -119.253457 317 28212ft 429kts
30-Jan-20 10:59 34.431940 -119.355506 317 28210ft 428kts
30-Jan-20 11:00 34.516649 -119.457408 317 28209ft 430kts
30-Jan-20 11:01 34.601971 -119.560369 317 28208ft 429kts
30-Jan-20 11:02 34.688138 -119.664668 317 28209ft 429kts
30-Jan-20 11:03 34.773478 -119.768278 317 28225ft 429kts
30-Jan-20 11:04 34.858073 -119.871310 317 28257ft 428kts
30-Jan-20 11:05 34.942241 -119.974137 317 28270ft 427kts
30-Jan-20 11:06 35.026585 -120.077489 316 28269ft 429kts
30-Jan-20 11:07 35.111067 -120.181346 316 28275ft 429kts
30-Jan-20 11:08 35.199023 -120.280781 324 28278ft 428kts
30-Jan-20 11:09 35.294646 -120.368514 324 28275ft 427kts
30-Jan-20 11:10 35.390401 -120.456416 324 28277ft 427kts
30-Jan-20 11:11 35.485422 -120.543870 324 28298ft 426kts
30-Jan-20 11:12 35.583014 -120.626239 328 28308ft 425kts
30-Jan-20 11:13 35.683575 -120.704963 327 28303ft 408kts
30-Jan-20 11:14 35.779529 -120.780454 327 28309ft 402kts
30-Jan-20 11:15 35.873767 -120.854833 327 28308ft 402kts
30-Jan-20 11:16 35.968407 -120.929750 327 28307ft 403kts
30-Jan-20 11:17 36.059670 -121.010306 323 28316ft 401kts
30-Jan-20 11:18 36.142386 -121.088880 323 27375ft 404kts
30-Jan-20 11:19 36.225990 -121.168621 323 24306ft 368kts
30-Jan-20 11:20 36.305072 -121.244261 324 21247ft 346kts
30-Jan-20 11:21 36.381774 -121.317871 324 19355ft 343kts
30-Jan-20 11:22 36.455053 -121.388534 324 16402ft 321kts
30-Jan-20 11:23 36.529040 -121.443107 341 14152ft 301kts
30-Jan-20 11:25 36.608171 -121.476874 341 12960ft 294kts
30-Jan-20 11:26 36.684934 -121.509354 341 11788ft 286kts
30-Jan-20 11:27 36.761777 -121.541923 341 10479ft 291kts
30-Jan-20 11:28 36.832799 -121.572098 341 10082ft 245kts
30-Jan-20 11:29 36.899089 -121.600318 342 8518ft 254kts
30-Jan-20 11:30 36.965406 -121.628495 342 7416ft 246kts
30-Jan-20 11:31 37.029980 -121.655916 341 6301ft 239kts
30-Jan-20 11:32 37.091984 -121.682285 341 5393ft 230kts
30-Jan-20 11:33 37.140713 -121.702835 342 4756ft 228kts
30-Jan-20 11:34 37.193298 -121.745070 321 3999ft 220kts
30-Jan-20 11:35 37.233647 -121.788931 321 3291ft 175kts
30-Jan-20 11:36 37.270225 -121.828761 320 2359ft 172kts
30-Jan-20 11:37 37.303441 -121.865305 318 1561ft 155kts
30-Jan-20 11:38 37.333989 -121.898699 319 659ft 140kts
30-Jan-20 11:39 37.361785 -121.928906 318 58ft 94kts
30-Jan-20 11:40 37.368656 -121.932204 47 51ft 12kts
30-Jan-20 11:41 37.369695 -121.930935 48 48ft 2kts
30-Jan-20 11:42 37.369768 -121.930824 50 47ft 0kts

Navigation Log

Ident Type
Flight plan parsing failed, navigation log unavailable